Terminal Aerodrome Forecast
Issued by NWS Billings, MT

Home | Current Version | Previous Version | Text Only | Print | Product List | Glossary On
Versions: 1 2 3 4 5 6 7 8 9 10 11 12 13 14 15 16 17 18
000
FTUS45 KBYZ 240539
TAFSHR
TAF
KSHR 240539Z 2406/2506 32016G30KT P6SM VCSH BKN060
     FM240800 31008KT P6SM BKN070
     FM241500 02008KT P6SM VCSH SCT020 BKN070
     FM250000 05007KT 6SM -RA SCT025 OVC040=

USA.gov is the U.S. government's official web portal to all federal, state and local government web resources and services.